Time;durP1;ratioP1;P1;durP2;ratioP2;P2;SDS_P1;SDS_P2;PMS_P1;PMS_P2;Temp;Humidity;BMP_temperature;BMP_pressure;BME280_temperature;BME280_humidity;BME280_pressure;Samples;Min_cycle;Max_cycle;Signal;HPM_P1;HPM_P2
2022/05/13 00:00:34;;;;;;;15.10;3.90;;;;;;;;;;5086537;28;20212;-69
2022/05/13 00:03:02;;;;;;;14.27;3.13;;;;;;;;;;5093133;28;20669;-69
2022/05/13 00:05:30;;;;;;;14.77;3.42;;;;;;;;;;5092901;28;20594;-69
2022/05/13 00:07:58;;;;;;;16.63;4.17;;;;;;;;;;5093028;28;20679;-69
2022/05/13 00:10:25;;;;;;;15.70;4.38;;;;;;;;;;5093205;28;20505;-69
2022/05/13 00:12:53;;;;;;;15.05;3.10;;;;;;;;;;5092945;28;20205;-69
2022/05/13 00:15:24;;;;;;;14.93;3.15;;;;;;;;;;5092788;28;20233;-69
2022/05/13 00:17:53;;;;;;;14.50;3.55;;;;;;;;;;5092753;28;20258;-69
2022/05/13 00:20:21;;;;;;;16.35;3.78;;;;;;;;;;5093010;28;20208;-69
2022/05/13 00:22:52;;;;;;;14.13;3.75;;;;;;;;;;5093041;28;20208;-69
2022/05/13 00:25:21;;;;;;;14.23;3.60;;;;;;;;;;5086265;28;20739;-69
2022/05/13 00:27:48;;;;;;;15.85;3.17;;;;;;;;;;5092802;28;20250;-69
2022/05/13 00:30:16;;;;;;;13.85;3.38;;;;;;;;;;5092638;28;20230;-69
2022/05/13 00:32:47;;;;;;;15.73;3.13;;;;;;;;;;5092580;28;20208;-71
2022/05/13 00:35:14;;;;;;;15.93;3.58;;;;;;;;;;5092880;28;20208;-70
2022/05/13 00:37:42;;;;;;;14.10;3.60;;;;;;;;;;5092570;28;20240;-69
2022/05/13 00:40:12;;;;;;;18.83;3.53;;;;;;;;;;5092409;28;20207;-69
2022/05/13 00:42:39;;;;;;;15.15;3.67;;;;;;;;;;5092505;28;20210;-72
2022/05/13 00:45:07;;;;;;;14.48;3.22;;;;;;;;;;5092304;28;20219;-70
2022/05/13 00:47:35;;;;;;;14.70;4.10;;;;;;;;;;5091908;28;20199;-69
2022/05/13 00:50:04;;;;;;;14.32;3.50;;;;;;;;;;5092316;28;20240;-69
2022/05/13 00:52:32;;;;;;;14.45;3.28;;;;;;;;;;5092353;28;20203;-69
2022/05/13 00:55:00;;;;;;;18.30;3.95;;;;;;;;;;5092375;28;20204;-69
2022/05/13 00:57:30;;;;;;;13.70;3.75;;;;;;;;;;5091451;28;20204;-70
2022/05/13 00:59:58;;;;;;;17.23;3.13;;;;;;;;;;5092179;28;20291;-69
2022/05/13 01:02:25;;;;;;;13.52;3.00;;;;;;;;;;5092076;28;20200;-69
2022/05/13 01:04:53;;;;;;;14.40;3.70;;;;;;;;;;5092227;28;20594;-69
2022/05/13 01:07:22;;;;;;;16.25;3.67;;;;;;;;;;5091848;28;20212;-70
2022/05/13 01:09:52;;;;;;;15.82;3.85;;;;;;;;;;5091929;28;20206;-69
2022/05/13 01:12:23;;;;;;;15.57;3.40;;;;;;;;;;5092176;28;20211;-69
2022/05/13 01:14:58;;;;;;;15.05;3.55;;;;;;;;;;5092045;28;20208;-69
2022/05/13 01:20:12;;;;;;;13.65;3.42;;;;;;;;;;5092064;28;20222;-69
2022/05/13 01:22:43;;;;;;;15.77;3.40;;;;;;;;;;5091702;28;20211;-69
2022/05/13 01:25:11;;;;;;;14.95;3.17;;;;;;;;;;5092089;28;20214;-71
2022/05/13 01:27:41;;;;;;;13.40;3.60;;;;;;;;;;5091677;28;20707;-71
2022/05/13 01:30:09;;;;;;;16.50;4.13;;;;;;;;;;5091677;28;20684;-71
2022/05/13 01:32:37;;;;;;;18.25;4.38;;;;;;;;;;5091760;28;20208;-71
2022/05/13 01:35:05;;;;;;;14.43;3.30;;;;;;;;;;5091532;28;20278;-71
2022/05/13 01:37:33;;;;;;;14.65;3.47;;;;;;;;;;5091575;28;20235;-71
2022/05/13 01:40:03;;;;;;;15.48;3.78;;;;;;;;;;5091862;28;20277;-71
2022/05/13 01:42:31;;;;;;;14.77;3.47;;;;;;;;;;5091817;28;20204;-70
2022/05/13 01:44:59;;;;;;;13.73;3.22;;;;;;;;;;5091541;28;20206;-71
2022/05/13 01:47:27;;;;;;;19.08;3.80;;;;;;;;;;5091315;28;20609;-71
2022/05/13 01:49:55;;;;;;;15.15;3.92;;;;;;;;;;5091444;28;20573;-71
2022/05/13 01:52:22;;;;;;;15.00;3.50;;;;;;;;;;5091724;28;20207;-71
2022/05/13 01:54:50;;;;;;;13.75;3.70;;;;;;;;;;5091659;28;20203;-71
2022/05/13 01:57:20;;;;;;;14.95;3.58;;;;;;;;;;5091624;28;20215;-71
2022/05/13 01:59:47;;;;;;;14.70;3.28;;;;;;;;;;5091745;28;20222;-71
2022/05/13 02:02:15;;;;;;;16.02;3.92;;;;;;;;;;5091415;28;20277;-70
2022/05/13 02:04:42;;;;;;;18.10;3.72;;;;;;;;;;5091804;28;20220;-71
2022/05/13 02:07:09;;;;;;;15.55;3.85;;;;;;;;;;5091586;28;20212;-71
2022/05/13 02:09:37;;;;;;;14.60;3.60;;;;;;;;;;5093948;28;20208;-70
2022/05/13 02:12:05;;;;;;;14.45;3.70;;;;;;;;;;5095370;28;20603;-71
2022/05/13 02:14:34;;;;;;;15.77;5.05;;;;;;;;;;5095239;28;20258;-71
2022/05/13 02:17:01;;;;;;;14.82;3.90;;;;;;;;;;5095261;28;20212;-71
2022/05/13 02:19:29;;;;;;;14.43;3.80;;;;;;;;;;5095174;28;20204;-70
2022/05/13 02:21:56;;;;;;;28.20;4.53;;;;;;;;;;5095328;28;20207;-70
2022/05/13 02:24:23;;;;;;;17.52;3.95;;;;;;;;;;5095017;28;20219;-70
2022/05/13 02:26:51;;;;;;;20.00;3.83;;;;;;;;;;5094600;28;20224;-70
2022/05/13 02:29:18;;;;;;;15.05;3.30;;;;;;;;;;5094695;28;20208;-70
2022/05/13 02:31:48;;;;;;;15.68;4.15;;;;;;;;;;5095252;28;20228;-70
2022/05/13 02:34:16;;;;;;;14.70;3.60;;;;;;;;;;5095243;28;20223;-70
2022/05/13 02:36:43;;;;;;;18.13;3.97;;;;;;;;;;5094869;28;20231;-70
2022/05/13 02:39:11;;;;;;;14.48;4.05;;;;;;;;;;5094814;28;20211;-70
2022/05/13 02:41:38;;;;;;;16.23;4.13;;;;;;;;;;5094433;28;20310;-70
2022/05/13 02:44:06;;;;;;;16.83;3.80;;;;;;;;;;5095013;28;20215;-70
2022/05/13 02:46:33;;;;;;;15.65;4.18;;;;;;;;;;5094834;28;20209;-70
2022/05/13 02:49:04;;;;;;;17.02;4.20;;;;;;;;;;5094610;28;20660;-70
2022/05/13 02:51:31;;;;;;;15.00;4.00;;;;;;;;;;5094190;28;20608;-70
2022/05/13 02:53:59;;;;;;;13.38;3.50;;;;;;;;;;5094534;28;20207;-70
2022/05/13 02:56:26;;;;;;;17.17;3.92;;;;;;;;;;5094399;28;20207;-70
2022/05/13 02:58:54;;;;;;;17.40;6.47;;;;;;;;;;5094361;28;20207;-70
2022/05/13 03:01:21;;;;;;;19.25;4.22;;;;;;;;;;5094090;28;20216;-70
2022/05/13 03:03:49;;;;;;;14.35;3.90;;;;;;;;;;5094303;28;20656;-70
2022/05/13 03:06:20;;;;;;;14.73;3.50;;;;;;;;;;5094278;28;20204;-71
2022/05/13 03:08:48;;;;;;;17.88;3.83;;;;;;;;;;5094236;28;20211;-70
2022/05/13 03:11:16;;;;;;;15.65;4.28;;;;;;;;;;5087236;28;20227;-71
2022/05/13 03:13:43;;;;;;;25.63;4.05;;;;;;;;;;5094291;28;20236;-70
2022/05/13 03:16:14;;;;;;;16.75;4.70;;;;;;;;;;5094023;28;20204;-70
2022/05/13 03:18:41;;;;;;;14.68;4.55;;;;;;;;;;5094006;28;20206;-70
2022/05/13 03:21:09;;;;;;;14.02;3.85;;;;;;;;;;5093758;28;20223;-70
2022/05/13 03:23:42;;;;;;;15.57;4.20;;;;;;;;;;5093730;28;20204;-71
2022/05/13 03:26:10;;;;;;;15.93;4.55;;;;;;;;;;5093540;28;20311;-70
2022/05/13 03:28:37;;;;;;;14.33;3.70;;;;;;;;;;5093784;28;20201;-71
2022/05/13 03:31:05;;;;;;;15.10;4.27;;;;;;;;;;5093660;28;20836;-70
2022/05/13 03:33:32;;;;;;;15.73;3.97;;;;;;;;;;5093576;28;20557;-71
2022/05/13 03:36:00;;;;;;;14.70;3.90;;;;;;;;;;5093561;28;20831;-71
2022/05/13 03:38:27;;;;;;;16.60;3.87;;;;;;;;;;5093885;28;20450;-70
2022/05/13 03:40:57;;;;;;;12.90;2.87;;;;;;;;;;5093883;28;20448;-70
2022/05/13 03:43:24;;;;;;;13.87;3.13;;;;;;;;;;5093296;28;20996;-70
2022/05/13 03:45:51;;;;;;;13.93;3.07;;;;;;;;;;5093565;28;20491;-71
2022/05/13 03:48:19;;;;;;;15.13;3.70;;;;;;;;;;5093433;28;20492;-71
2022/05/13 03:50:47;;;;;;;13.40;3.50;;;;;;;;;;5093242;28;20943;-70
2022/05/13 03:53:15;;;;;;;14.40;3.50;;;;;;;;;;5093127;28;20962;-71
2022/05/13 03:55:42;;;;;;;15.83;3.20;;;;;;;;;;5093487;28;20528;-71
2022/05/13 03:58:12;;;;;;;13.60;2.80;;;;;;;;;;5093367;28;20442;-71
2022/05/13 04:00:40;;;;;;;13.90;3.37;;;;;;;;;;5093378;28;20460;-70
2022/05/13 04:03:07;;;;;;;14.50;3.33;;;;;;;;;;5093149;28;20455;-71
2022/05/13 04:11:05;;;;;;;13.23;3.13;;;;;;;;;;5093133;28;20476;-71
2022/05/13 04:16:19;;;;;;;15.13;3.67;;;;;;;;;;5093156;28;20444;-71
2022/05/13 04:18:49;;;;;;;14.17;3.00;;;;;;;;;;5092987;28;20454;-70
2022/05/13 04:21:17;;;;;;;14.00;3.03;;;;;;;;;;5092555;28;20957;-71
2022/05/13 04:23:47;;;;;;;19.03;3.50;;;;;;;;;;5092731;28;20537;-71
2022/05/13 04:26:14;;;;;;;15.90;3.50;;;;;;;;;;5086490;28;20491;-71
2022/05/13 04:28:45;;;;;;;15.00;4.50;;;;;;;;;;5092923;28;20791;-71
2022/05/13 04:31:13;;;;;;;14.90;3.23;;;;;;;;;;5092030;28;20488;-71
2022/05/13 04:33:41;;;;;;;13.60;3.00;;;;;;;;;;5092676;28;20494;-71
2022/05/13 04:36:09;;;;;;;20.13;3.67;;;;;;;;;;5092333;28;20457;-71
2022/05/13 04:38:37;;;;;;;12.60;2.93;;;;;;;;;;5092473;28;20481;-71
2022/05/13 04:43:48;;;;;;;14.97;2.73;;;;;;;;;;5092497;28;20478;-71
2022/05/13 04:46:15;;;;;;;14.87;3.30;;;;;;;;;;5092286;28;20462;-71
2022/05/13 04:48:43;;;;;;;14.97;2.87;;;;;;;;;;5092295;28;20453;-71
2022/05/13 04:51:10;;;;;;;13.60;3.10;;;;;;;;;;5092160;28;20944;-71
2022/05/13 04:53:39;;;;;;;14.97;3.80;;;;;;;;;;5092002;28;20966;-71
2022/05/13 04:56:07;;;;;;;18.33;3.10;;;;;;;;;;5092175;28;20461;-71
2022/05/13 04:58:35;;;;;;;14.00;3.27;;;;;;;;;;5085947;28;20442;-71
2022/05/13 05:01:05;;;;;;;16.23;3.03;;;;;;;;;;5092442;28;20450;-71
2022/05/13 05:03:33;;;;;;;16.27;4.40;;;;;;;;;;5091806;28;20478;-71
2022/05/13 05:06:01;;;;;;;19.30;4.63;;;;;;;;;;5091992;28;20457;-71
2022/05/13 05:08:29;;;;;;;19.03;5.60;;;;;;;;;;5092279;28;20833;-71
2022/05/13 05:10:56;;;;;;;22.60;7.87;;;;;;;;;;5092003;28;20961;-71
2022/05/13 05:13:25;;;;;;;26.53;10.20;;;;;;;;;;5091851;28;20461;-72
2022/05/13 05:15:53;;;;;;;27.90;10.40;;;;;;;;;;5091797;28;20454;-71
2022/05/13 05:18:23;;;;;;;23.90;8.07;;;;;;;;;;5091867;28;20533;-72
2022/05/13 05:20:51;;;;;;;28.53;7.50;;;;;;;;;;5091757;28;20544;-72
2022/05/13 05:23:19;;;;;;;27.73;10.23;;;;;;;;;;5091836;28;20508;-72
2022/05/13 05:25:47;;;;;;;18.23;5.33;;;;;;;;;;5091705;28;20445;-71
2022/05/13 05:28:15;;;;;;;27.53;6.03;;;;;;;;;;5091843;28;20446;-71
2022/05/13 05:30:43;;;;;;;18.53;5.43;;;;;;;;;;5092075;28;20811;-71
2022/05/13 05:33:11;;;;;;;17.40;3.77;;;;;;;;;;5091614;28;20511;-72
2022/05/13 05:35:40;;;;;;;21.17;7.80;;;;;;;;;;5092031;28;20456;-72
2022/05/13 05:38:08;;;;;;;15.70;4.60;;;;;;;;;;5091710;28;20480;-71
2022/05/13 05:40:36;;;;;;;20.30;5.57;;;;;;;;;;5091609;28;20457;-71
2022/05/13 05:43:04;;;;;;;14.93;3.70;;;;;;;;;;5093606;28;20524;-71
2022/05/13 05:45:31;;;;;;;15.20;4.37;;;;;;;;;;5095920;28;20438;-72
2022/05/13 05:47:59;;;;;;;14.57;3.80;;;;;;;;;;5095827;28;20445;-72
2022/05/13 05:50:27;;;;;;;14.47;4.07;;;;;;;;;;5095937;28;20891;-72
2022/05/13 05:52:56;;;;;;;17.73;5.03;;;;;;;;;;5095776;28;20485;-72
2022/05/13 05:58:10;;;;;;;15.93;4.10;;;;;;;;;;5095918;28;20428;-72
2022/05/13 06:00:39;;;;;;;18.40;4.73;;;;;;;;;;5095580;28;20450;-71
2022/05/13 06:03:06;;;;;;;15.30;4.23;;;;;;;;;;5095538;28;20450;-71
2022/05/13 06:05:34;;;;;;;14.23;3.77;;;;;;;;;;5095342;28;20450;-71
2022/05/13 06:08:04;;;;;;;16.97;4.97;;;;;;;;;;5095269;28;20446;-72
2022/05/13 06:10:32;;;;;;;17.40;4.70;;;;;;;;;;5095358;28;20454;-72
2022/05/13 06:13:02;;;;;;;15.50;4.50;;;;;;;;;;5095422;28;20486;-72
2022/05/13 06:15:29;;;;;;;14.77;4.00;;;;;;;;;;5095133;28;20449;-72
2022/05/13 06:17:57;;;;;;;18.23;3.90;;;;;;;;;;5095577;28;20498;-72
2022/05/13 06:20:27;;;;;;;13.73;3.93;;;;;;;;;;5095685;28;20454;-72
2022/05/13 06:22:54;;;;;;;16.13;3.87;;;;;;;;;;5088772;28;20442;-72
2022/05/13 06:25:24;;;;;;;14.57;3.40;;;;;;;;;;5095194;28;20487;-72
2022/05/13 06:27:53;;;;;;;13.60;3.63;;;;;;;;;;5095082;28;20854;-72
2022/05/13 06:30:22;;;;;;;14.50;3.80;;;;;;;;;;5094943;28;20825;-72
2022/05/13 06:32:50;;;;;;;18.40;3.63;;;;;;;;;;5094832;28;20477;-72
2022/05/13 06:35:17;;;;;;;15.27;4.67;;;;;;;;;;5094611;28;20799;-72
2022/05/13 06:37:44;;;;;;;18.60;4.53;;;;;;;;;;5095193;28;20481;-72
2022/05/13 06:40:12;;;;;;;14.30;3.40;;;;;;;;;;5094724;28;20445;-72
2022/05/13 06:42:41;;;;;;;17.97;3.60;;;;;;;;;;5094743;28;20456;-72
2022/05/13 06:45:09;;;;;;;14.90;3.47;;;;;;;;;;5094627;28;20541;-72
2022/05/13 06:47:37;;;;;;;13.80;3.30;;;;;;;;;;5094196;28;20445;-72
2022/05/13 06:50:05;;;;;;;36.13;6.50;;;;;;;;;;5094864;28;20828;-73
2022/05/13 06:52:33;;;;;;;17.13;4.67;;;;;;;;;;5094798;28;20512;-72
2022/05/13 06:55:00;;;;;;;14.50;3.90;;;;;;;;;;5093862;28;20446;-73
2022/05/13 06:57:28;;;;;;;15.07;3.87;;;;;;;;;;5094342;28;20450;-72
2022/05/13 06:59:58;;;;;;;15.27;3.60;;;;;;;;;;5094511;28;20450;-73
2022/05/13 07:02:27;;;;;;;15.97;3.93;;;;;;;;;;5094384;28;20825;-72
2022/05/13 07:04:54;;;;;;;16.27;3.53;;;;;;;;;;5094255;28;20458;-72
2022/05/13 07:07:22;;;;;;;16.00;4.03;;;;;;;;;;5094079;28;20872;-73
2022/05/13 07:09:49;;;;;;;15.50;4.70;;;;;;;;;;5094280;28;20981;-73
2022/05/13 07:12:17;;;;;;;16.77;3.90;;;;;;;;;;5087688;28;20835;-73
2022/05/13 07:14:44;;;;;;;16.10;3.80;;;;;;;;;;5093989;28;20452;-73
2022/05/13 07:17:14;;;;;;;15.50;4.10;;;;;;;;;;5094079;28;20456;-73
2022/05/13 07:19:42;;;;;;;15.40;3.87;;;;;;;;;;5094288;28;20446;-73
2022/05/13 07:22:09;;;;;;;14.40;3.40;;;;;;;;;;5093937;28;20476;-73
2022/05/13 07:24:36;;;;;;;19.20;4.90;;;;;;;;;;5094060;28;20453;-73
2022/05/13 07:27:04;;;;;;;15.83;4.37;;;;;;;;;;5093705;28;21004;-73
2022/05/13 07:29:32;;;;;;;14.87;4.70;;;;;;;;;;5094012;28;20446;-71
2022/05/13 07:31:59;;;;;;;15.07;5.10;;;;;;;;;;5093974;28;20452;-71
2022/05/13 07:34:28;;;;;;;14.43;4.10;;;;;;;;;;5094434;28;20450;-71
2022/05/13 07:36:56;;;;;;;16.30;4.03;;;;;;;;;;5093815;28;20528;-71
2022/05/13 07:42:23;;;;;;;15.67;4.20;;;;;;;;;;5031482;28;20449;-72
2022/05/13 07:44:51;;;;;;;16.17;4.20;;;;;;;;;;5031387;28;20460;-72
2022/05/13 07:47:19;;;;;;;16.10;4.37;;;;;;;;;;5058762;28;20445;-71
2022/05/13 07:49:49;;;;;;;16.33;4.40;;;;;;;;;;5093510;28;20456;-72
2022/05/13 07:52:16;;;;;;;14.40;4.70;;;;;;;;;;5093247;28;20577;-71
2022/05/13 07:54:43;;;;;;;15.43;4.73;;;;;;;;;;5093378;28;20448;-72
2022/05/13 07:57:11;;;;;;;14.93;4.80;;;;;;;;;;5093240;28;20970;-71
2022/05/13 08:02:20;;;;;;;17.07;4.50;;;;;;;;;;5093132;28;20446;-72
2022/05/13 08:04:49;;;;;;;19.73;4.80;;;;;;;;;;5093118;28;20961;-72
2022/05/13 08:07:17;;;;;;;14.40;4.63;;;;;;;;;;5092062;28;20446;-72
2022/05/13 08:09:45;;;;;;;17.40;4.83;;;;;;;;;;5093099;28;20461;-72
2022/05/13 08:12:12;;;;;;;15.27;4.53;;;;;;;;;;5093050;28;20457;-72
2022/05/13 08:14:40;;;;;;;14.40;4.00;;;;;;;;;;5093235;28;20822;-72
2022/05/13 08:17:08;;;;;;;14.50;4.27;;;;;;;;;;5092917;28;20445;-72
2022/05/13 08:19:35;;;;;;;16.17;3.70;;;;;;;;;;5093016;28;20452;-72
2022/05/13 08:22:05;;;;;;;15.80;4.43;;;;;;;;;;5086180;28;20446;-72
2022/05/13 08:24:32;;;;;;;13.77;4.00;;;;;;;;;;5092994;28;20541;-72
2022/05/13 08:27:00;;;;;;;15.80;3.63;;;;;;;;;;5092500;28;20469;-72
2022/05/13 08:29:27;;;;;;;14.20;3.63;;;;;;;;;;5092517;28;20968;-72
2022/05/13 08:31:54;;;;;;;15.13;3.97;;;;;;;;;;5092530;28;20449;-72
2022/05/13 08:34:22;;;;;;;15.20;3.80;;;;;;;;;;5092486;28;20493;-72
2022/05/13 08:36:50;;;;;;;17.90;4.20;;;;;;;;;;5092461;28;20482;-72
2022/05/13 08:39:20;;;;;;;13.80;3.90;;;;;;;;;;5092361;28;20819;-72
2022/05/13 08:41:55;;;;;;;15.23;4.70;;;;;;;;;;5092584;28;20458;-72
2022/05/13 08:44:23;;;;;;;17.60;4.70;;;;;;;;;;5092340;28;20454;-72
2022/05/13 08:46:57;;;;;;;18.97;3.37;;;;;;;;;;5092647;28;20448;-72
2022/05/13 08:49:25;;;;;;;20.30;3.87;;;;;;;;;;5086355;28;20444;-72
2022/05/13 08:52:00;;;;;;;15.37;3.70;;;;;;;;;;5092796;28;20446;-72
2022/05/13 08:54:34;;;;;;;13.70;3.07;;;;;;;;;;5086137;28;20485;-72
2022/05/13 08:57:04;;;;;;;15.40;3.50;;;;;;;;;;5092617;28;20875;-72
2022/05/13 08:59:36;;;;;;;23.70;4.20;;;;;;;;;;5092018;28;20449;-72
2022/05/13 09:02:06;;;;;;;19.03;4.30;;;;;;;;;;5092261;28;20446;-72
2022/05/13 09:04:36;;;;;;;14.70;3.77;;;;;;;;;;5092052;28;20540;-72
2022/05/13 09:07:05;;;;;;;13.87;3.37;;;;;;;;;;5091977;28;20461;-72
2022/05/13 09:09:37;;;;;;;14.33;3.50;;;;;;;;;;5092085;28;20563;-73
2022/05/13 09:12:08;;;;;;;14.30;3.20;;;;;;;;;;5092464;28;20885;-72
2022/05/13 09:14:42;;;;;;;15.30;3.50;;;;;;;;;;5092110;28;20485;-72
2022/05/13 09:17:24;;;;;;;14.87;3.80;;;;;;;;;;5091640;28;20817;-72
2022/05/13 09:19:54;;;;;;;14.73;4.03;;;;;;;;;;5089687;28;20450;-72
2022/05/13 09:22:22;;;;;;;13.70;3.80;;;;;;;;;;5092426;28;20442;-72
2022/05/13 09:24:51;;;;;;;16.00;3.60;;;;;;;;;;5091992;28;20453;-72
2022/05/13 09:27:19;;;;;;;14.63;4.03;;;;;;;;;;5091071;28;20475;-72
2022/05/13 09:29:47;;;;;;;14.10;3.23;;;;;;;;;;5091956;28;20523;-72
2022/05/13 09:32:16;;;;;;;13.53;3.30;;;;;;;;;;5091770;28;20527;-73
2022/05/13 09:34:49;;;;;;;14.40;3.17;;;;;;;;;;5091664;28;20500;-72
2022/05/13 09:37:20;;;;;;;16.33;3.00;;;;;;;;;;5091914;28;20536;-72
2022/05/13 09:39:53;;;;;;;18.30;3.43;;;;;;;;;;5091747;28;20454;-72
2022/05/13 09:42:36;;;;;;;14.13;3.73;;;;;;;;;;5092141;28;20501;-72
2022/05/13 09:45:15;;;;;;;14.27;2.90;;;;;;;;;;5091919;28;20450;-72
2022/05/13 09:47:43;;;;;;;15.97;2.93;;;;;;;;;;5091617;28;20461;-72
2022/05/13 09:50:23;;;;;;;14.33;3.50;;;;;;;;;;5091602;28;20529;-72
2022/05/13 09:52:51;;;;;;;15.87;3.60;;;;;;;;;;5091541;28;21013;-72
2022/05/13 09:55:26;;;;;;;15.60;3.77;;;;;;;;;;5091410;28;20446;-73
2022/05/13 09:57:54;;;;;;;14.70;3.70;;;;;;;;;;5091605;28;20452;-72
2022/05/13 10:00:25;;;;;;;14.33;3.07;;;;;;;;;;5091508;28;20511;-72
2022/05/13 10:03:07;;;;;;;14.07;3.43;;;;;;;;;;5091721;28;20541;-72
2022/05/13 10:05:34;;;;;;;17.30;4.03;;;;;;;;;;5091187;28;20454;-72
2022/05/13 10:08:03;;;;;;;14.53;4.00;;;;;;;;;;5091413;28;20446;-72
2022/05/13 10:16:07;;;;;;;13.40;3.20;;;;;;;;;;5091488;28;20429;-72
2022/05/13 10:18:37;;;;;;;14.27;3.83;;;;;;;;;;5091498;28;20449;-72
2022/05/13 10:21:06;;;;;;;15.90;3.57;;;;;;;;;;5091547;28;20449;-72
2022/05/13 10:23:36;;;;;;;17.27;3.07;;;;;;;;;;5091163;28;20453;-72
2022/05/13 10:26:07;;;;;;;16.30;3.70;;;;;;;;;;5090890;28;20445;-72
2022/05/13 10:28:40;;;;;;;14.97;3.60;;;;;;;;;;5091175;28;20442;-72
2022/05/13 10:31:10;;;;;;;16.70;3.60;;;;;;;;;;5094974;28;20449;-72
2022/05/13 10:33:41;;;;;;;13.70;3.10;;;;;;;;;;5094914;28;20489;-72
2022/05/13 10:36:11;;;;;;;17.23;3.90;;;;;;;;;;5095241;28;20453;-72
2022/05/13 10:38:40;;;;;;;16.63;3.77;;;;;;;;;;5095050;28;20448;-72
2022/05/13 10:41:16;;;;;;;19.73;4.10;;;;;;;;;;5094716;28;20954;-72
2022/05/13 10:43:47;;;;;;;15.87;4.10;;;;;;;;;;5094824;28;20454;-72
2022/05/13 10:46:21;;;;;;;14.47;3.13;;;;;;;;;;5094765;28;20446;-72
2022/05/13 10:48:50;;;;;;;13.90;4.30;;;;;;;;;;5094893;28;20877;-72
2022/05/13 10:51:20;;;;;;;14.43;3.40;;;;;;;;;;5094346;28;20981;-72
2022/05/13 10:53:58;;;;;;;14.93;3.50;;;;;;;;;;5094981;28;20481;-72
2022/05/13 10:56:37;;;;;;;14.60;3.80;;;;;;;;;;5094828;28;20446;-72
2022/05/13 10:59:11;;;;;;;18.40;3.90;;;;;;;;;;5094488;28;20444;-72
2022/05/13 11:01:45;;;;;;;14.10;3.33;;;;;;;;;;5094363;28;20441;-72
2022/05/13 11:04:20;;;;;;;13.87;3.37;;;;;;;;;;5094404;28;20465;-72
2022/05/13 11:06:53;;;;;;;13.57;3.60;;;;;;;;;;5094335;28;20477;-72
2022/05/13 11:09:26;;;;;;;14.43;3.83;;;;;;;;;;5094100;28;20445;-72
2022/05/13 11:12:00;;;;;;;15.40;3.43;;;;;;;;;;5094253;28;20476;-73
2022/05/13 11:14:34;;;;;;;14.87;3.13;;;;;;;;;;5094081;28;20481;-72
2022/05/13 11:17:06;;;;;;;13.90;3.60;;;;;;;;;;5094473;28;20434;-72
2022/05/13 11:19:37;;;;;;;16.50;3.80;;;;;;;;;;5093943;28;20949;-73
2022/05/13 11:22:07;;;;;;;13.43;3.03;;;;;;;;;;5094103;28;20446;-72
2022/05/13 11:27:30;;;;;;;16.90;3.63;;;;;;;;;;5093553;28;20473;-72
2022/05/13 11:30:00;;;;;;;14.57;3.57;;;;;;;;;;5093956;28;20442;-73
2022/05/13 11:32:32;;;;;;;15.10;3.30;;;;;;;;;;5094168;28;20446;-72
2022/05/13 11:35:08;;;;;;;12.77;3.00;;;;;;;;;;5093838;28;20551;-72
2022/05/13 11:37:39;;;;;;;20.20;3.80;;;;;;;;;;5093839;28;21005;-73
2022/05/13 11:40:14;;;;;;;14.20;3.27;;;;;;;;;;5093608;28;20458;-73
2022/05/13 11:43:19;;;;;;;15.00;3.80;;;;;;;;;;5093876;28;20449;-72
2022/05/13 11:46:09;;;;;;;14.73;3.50;;;;;;;;;;5093577;28;20445;-73
2022/05/13 11:48:38;;;;;;;13.50;3.20;;;;;;;;;;5093564;28;20925;-73
2022/05/13 11:51:06;;;;;;;14.10;3.30;;;;;;;;;;5093630;28;20549;-73
2022/05/13 11:53:47;;;;;;;14.60;3.83;;;;;;;;;;5093111;28;20489;-73
2022/05/13 11:56:18;;;;;;;13.60;3.33;;;;;;;;;;5093632;28;20446;-73
2022/05/13 11:58:50;;;;;;;17.93;3.00;;;;;;;;;;5093401;28;20442;-73
2022/05/13 12:01:38;;;;;;;17.30;3.70;;;;;;;;;;5093277;28;20458;-73
2022/05/13 12:04:20;;;;;;;16.20;3.07;;;;;;;;;;5093330;28;20454;-73
2022/05/13 12:06:58;;;;;;;14.20;3.53;;;;;;;;;;5091073;28;20492;-72
2022/05/13 12:09:28;;;;;;;14.37;3.60;;;;;;;;;;5093114;28;20446;-73
2022/05/13 12:12:02;;;;;;;16.00;3.60;;;;;;;;;;5093120;28;20450;-73
2022/05/13 12:14:35;;;;;;;14.87;3.93;;;;;;;;;;5093368;28;20490;-73
2022/05/13 12:17:08;;;;;;;18.20;3.90;;;;;;;;;;5093336;28;20474;-73
2022/05/13 12:19:40;;;;;;;16.07;3.70;;;;;;;;;;5092792;28;20465;-72
2022/05/13 12:22:11;;;;;;;13.90;3.60;;;;;;;;;;5092912;28;20531;-73
2022/05/13 12:24:59;;;;;;;15.73;3.87;;;;;;;;;;5093051;28;20450;-73
2022/05/13 12:27:30;;;;;;;15.53;4.47;;;;;;;;;;5092178;28;20524;-73
2022/05/13 12:30:01;;;;;;;16.53;4.00;;;;;;;;;;5092728;28;20457;-72
2022/05/13 12:32:40;;;;;;;15.60;3.53;;;;;;;;;;5086199;28;20442;-72
2022/05/13 12:38:06;;;;;;;13.70;3.43;;;;;;;;;;5089453;28;20862;-72
2022/05/13 12:40:35;;;;;;;16.50;3.63;;;;;;;;;;5092924;28;20449;-73
2022/05/13 12:43:07;;;;;;;16.20;3.37;;;;;;;;;;5092625;28;20438;-73
2022/05/13 12:45:44;;;;;;;14.40;3.43;;;;;;;;;;5092265;28;20989;-73
2022/05/13 12:48:15;;;;;;;13.87;2.90;;;;;;;;;;5092451;28;20465;-73
2022/05/13 12:50:43;;;;;;;14.07;3.53;;;;;;;;;;5092456;28;20449;-73
2022/05/13 12:53:29;;;;;;;13.27;3.30;;;;;;;;;;5091754;28;20474;-73
2022/05/13 12:55:59;;;;;;;13.30;3.03;;;;;;;;;;5092451;28;20449;-73
2022/05/13 12:58:27;;;;;;;18.60;2.93;;;;;;;;;;5092180;28;20457;-73
2022/05/13 13:00:55;;;;;;;15.80;3.33;;;;;;;;;;5092431;28;20438;-73
2022/05/13 13:03:24;;;;;;;14.50;3.53;;;;;;;;;;5092229;28;20453;-73
2022/05/13 13:05:58;;;;;;;17.13;3.97;;;;;;;;;;5092095;28;20450;-73
2022/05/13 13:08:26;;;;;;;15.23;3.57;;;;;;;;;;5092109;28;20507;-73
2022/05/13 13:10:57;;;;;;;14.37;3.70;;;;;;;;;;5091914;28;20453;-73
2022/05/13 13:13:29;;;;;;;17.63;4.10;;;;;;;;;;5091874;28;20446;-73
2022/05/13 13:16:00;;;;;;;16.13;3.50;;;;;;;;;;5086127;28;20954;-73
2022/05/13 13:18:34;;;;;;;17.97;3.83;;;;;;;;;;5085614;28;20462;-73
2022/05/13 13:21:02;;;;;;;15.43;3.60;;;;;;;;;;5092045;28;20936;-73
2022/05/13 13:23:31;;;;;;;15.80;4.03;;;;;;;;;;5091567;28;20453;-73
2022/05/13 13:25:58;;;;;;;14.30;3.47;;;;;;;;;;5091573;28;20460;-73
2022/05/13 13:28:29;;;;;;;17.87;3.30;;;;;;;;;;5091738;28;20461;-73
2022/05/13 13:30:57;;;;;;;14.30;3.87;;;;;;;;;;5092171;28;20448;-73
2022/05/13 13:33:26;;;;;;;18.37;3.70;;;;;;;;;;5091593;28;20981;-73
2022/05/13 13:35:54;;;;;;;14.07;3.60;;;;;;;;;;5091605;28;20505;-73
2022/05/13 13:38:22;;;;;;;17.30;4.47;;;;;;;;;;5092035;28;20442;-73
2022/05/13 13:40:51;;;;;;;17.27;3.67;;;;;;;;;;5091931;28;20537;-73
2022/05/13 13:43:20;;;;;;;13.27;2.97;;;;;;;;;;5091534;28;20864;-73
2022/05/13 13:45:53;;;;;;;13.60;3.53;;;;;;;;;;5091676;28;20457;-73
2022/05/13 13:48:37;;;;;;;15.00;4.83;;;;;;;;;;5091571;28;20446;-73
2022/05/13 13:51:07;;;;;;;14.00;3.80;;;;;;;;;;5091815;28;20453;-73
2022/05/13 13:53:38;;;;;;;16.43;3.70;;;;;;;;;;5091431;28;20450;-73
2022/05/13 13:56:07;;;;;;;13.80;3.80;;;;;;;;;;5091587;28;20529;-73
2022/05/13 13:58:46;;;;;;;13.50;3.70;;;;;;;;;;5091510;28;20454;-73
2022/05/13 14:01:17;;;;;;;13.50;3.13;;;;;;;;;;5091617;28;20816;-73
2022/05/13 14:03:45;;;;;;;12.97;3.00;;;;;;;;;;5092975;28;20942;-73
2022/05/13 14:06:15;;;;;;;14.73;3.47;;;;;;;;;;5095518;28;20460;-73
2022/05/13 14:08:43;;;;;;;14.40;3.47;;;;;;;;;;5089123;28;20442;-73
2022/05/13 14:11:12;;;;;;;13.67;3.07;;;;;;;;;;5095399;28;20445;-73
2022/05/13 14:13:41;;;;;;;15.30;3.20;;;;;;;;;;5095401;28;20453;-73
2022/05/13 14:16:12;;;;;;;15.87;4.00;;;;;;;;;;5095194;28;20508;-73
2022/05/13 14:18:41;;;;;;;15.87;3.80;;;;;;;;;;5095650;28;20446;-73
2022/05/13 14:21:11;;;;;;;13.87;3.53;;;;;;;;;;5095174;28;20461;-73
2022/05/13 14:23:39;;;;;;;15.40;3.90;;;;;;;;;;5094965;28;20540;-73
2022/05/13 14:26:07;;;;;;;16.27;3.60;;;;;;;;;;5094637;28;20503;-73
2022/05/13 14:28:42;;;;;;;14.60;4.20;;;;;;;;;;5095011;28;20996;-73
2022/05/13 14:31:12;;;;;;;16.27;3.40;;;;;;;;;;5095380;28;20487;-73
2022/05/13 14:33:41;;;;;;;14.20;3.80;;;;;;;;;;5094969;28;20942;-73
2022/05/13 14:36:10;;;;;;;14.83;3.70;;;;;;;;;;5094515;28;20875;-73
2022/05/13 14:41:20;;;;;;;13.30;3.57;;;;;;;;;;5089816;28;20486;-73
2022/05/13 14:43:48;;;;;;;13.40;2.80;;;;;;;;;;5094758;28;20450;-73
2022/05/13 14:46:16;;;;;;;15.73;3.70;;;;;;;;;;5094856;28;20453;-73
2022/05/13 14:48:44;;;;;;;13.27;3.47;;;;;;;;;;5094777;28;20957;-73
2022/05/13 14:51:18;;;;;;;14.20;3.70;;;;;;;;;;5094673;28;20450;-73
2022/05/13 14:53:51;;;;;;;14.47;3.30;;;;;;;;;;5094818;28;20536;-73
2022/05/13 14:56:18;;;;;;;14.80;3.00;;;;;;;;;;5094662;28;20485;-73
2022/05/13 14:58:53;;;;;;;13.63;3.70;;;;;;;;;;5094476;28;20438;-73
2022/05/13 15:01:22;;;;;;;13.60;3.40;;;;;;;;;;5094213;28;20444;-73
2022/05/13 15:03:53;;;;;;;18.47;4.17;;;;;;;;;;5094370;28;20458;-73
2022/05/13 15:06:34;;;;;;;20.60;5.17;;;;;;;;;;5094673;28;20449;-73
2022/05/13 15:09:08;;;;;;;13.83;3.80;;;;;;;;;;5094332;28;20448;-73
2022/05/13 15:11:36;;;;;;;13.57;3.37;;;;;;;;;;5094215;28;20454;-73
2022/05/13 15:14:06;;;;;;;13.70;3.30;;;;;;;;;;5094096;28;20461;-73
2022/05/13 15:16:34;;;;;;;15.47;3.90;;;;;;;;;;5093548;28;20460;-73
2022/05/13 15:19:02;;;;;;;17.70;3.87;;;;;;;;;;5094286;28;20457;-73
2022/05/13 15:21:30;;;;;;;14.83;3.70;;;;;;;;;;5094056;28;20842;-73